sensor_id;sensor_type;location;lat;lon;timestamp;P1;durP1;ratioP1;P2;durP2;ratioP2
14939;SDS011;11825;51.898;8.202;2023-07-22T00:01:15;10.47;;;8.93;;
14939;SDS011;11825;51.898;8.202;2023-07-22T00:06:17;10.53;;;8.77;;
14939;SDS011;11825;51.898;8.202;2023-07-22T00:11:19;11.83;;;8.87;;
14939;SDS011;11825;51.898;8.202;2023-07-22T00:16:23;17.80;;;10.13;;
14939;SDS011;11825;51.898;8.202;2023-07-22T00:21:26;11.73;;;8.17;;
14939;SDS011;11825;51.898;8.202;2023-07-22T00:26:27;12.03;;;8.93;;
14939;SDS011;11825;51.898;8.202;2023-07-22T00:31:30;11.60;;;9.20;;
14939;SDS011;11825;51.898;8.202;2023-07-22T00:36:32;9.50;;;8.50;;
14939;SDS011;11825;51.898;8.202;2023-07-22T00:41:34;14.00;;;10.07;;
14939;SDS011;11825;51.898;8.202;2023-07-22T00:46:35;10.63;;;8.47;;
14939;SDS011;11825;51.898;8.202;2023-07-22T00:51:37;14.70;;;9.13;;
14939;SDS011;11825;51.898;8.202;2023-07-22T00:56:39;14.90;;;9.50;;
14939;SDS011;11825;51.898;8.202;2023-07-22T01:01:41;13.73;;;9.50;;
14939;SDS011;11825;51.898;8.202;2023-07-22T01:06:43;9.80;;;8.90;;
14939;SDS011;11825;51.898;8.202;2023-07-22T01:11:46;11.77;;;8.83;;
14939;SDS011;11825;51.898;8.202;2023-07-22T01:16:47;12.03;;;8.70;;
14939;SDS011;11825;51.898;8.202;2023-07-22T01:21:49;11.57;;;8.73;;
14939;SDS011;11825;51.898;8.202;2023-07-22T01:26:51;11.47;;;8.27;;
14939;SDS011;11825;51.898;8.202;2023-07-22T01:31:54;12.03;;;8.70;;
14939;SDS011;11825;51.898;8.202;2023-07-22T01:36:56;10.57;;;8.17;;
14939;SDS011;11825;51.898;8.202;2023-07-22T01:41:57;13.93;;;8.93;;
14939;SDS011;11825;51.898;8.202;2023-07-22T01:47:01;13.50;;;8.60;;
14939;SDS011;11825;51.898;8.202;2023-07-22T01:52:04;15.93;;;9.53;;
14939;SDS011;11825;51.898;8.202;2023-07-22T01:57:06;10.37;;;8.27;;
14939;SDS011;11825;51.898;8.202;2023-07-22T02:02:07;11.37;;;8.77;;
14939;SDS011;11825;51.898;8.202;2023-07-22T02:07:09;13.07;;;8.47;;
14939;SDS011;11825;51.898;8.202;2023-07-22T02:12:11;11.93;;;9.30;;
14939;SDS011;11825;51.898;8.202;2023-07-22T02:17:13;13.20;;;9.60;;
14939;SDS011;11825;51.898;8.202;2023-07-22T02:22:15;13.53;;;9.47;;
14939;SDS011;11825;51.898;8.202;2023-07-22T02:27:16;16.40;;;10.80;;
14939;SDS011;11825;51.898;8.202;2023-07-22T02:32:18;14.97;;;10.60;;
14939;SDS011;11825;51.898;8.202;2023-07-22T02:37:20;15.80;;;10.90;;
14939;SDS011;11825;51.898;8.202;2023-07-22T02:42:22;14.83;;;10.33;;
14939;SDS011;11825;51.898;8.202;2023-07-22T02:47:23;15.30;;;11.03;;
14939;SDS011;11825;51.898;8.202;2023-07-22T02:52:28;14.03;;;10.43;;
14939;SDS011;11825;51.898;8.202;2023-07-22T02:57:29;16.43;;;12.10;;
14939;SDS011;11825;51.898;8.202;2023-07-22T03:02:31;15.47;;;12.40;;
14939;SDS011;11825;51.898;8.202;2023-07-22T03:07:36;14.27;;;11.53;;
14939;SDS011;11825;51.898;8.202;2023-07-22T03:12:38;13.50;;;11.80;;
14939;SDS011;11825;51.898;8.202;2023-07-22T03:17:40;19.03;;;12.93;;
14939;SDS011;11825;51.898;8.202;2023-07-22T03:22:43;15.87;;;12.67;;
14939;SDS011;11825;51.898;8.202;2023-07-22T03:27:45;13.37;;;11.60;;
14939;SDS011;11825;51.898;8.202;2023-07-22T03:32:47;18.40;;;12.83;;
14939;SDS011;11825;51.898;8.202;2023-07-22T03:37:51;15.83;;;12.40;;
14939;SDS011;11825;51.898;8.202;2023-07-22T03:42:53;16.30;;;13.13;;
14939;SDS011;11825;51.898;8.202;2023-07-22T03:47:56;17.40;;;12.93;;
14939;SDS011;11825;51.898;8.202;2023-07-22T03:52:59;17.77;;;12.17;;
14939;SDS011;11825;51.898;8.202;2023-07-22T03:58:01;14.80;;;12.53;;
14939;SDS011;11825;51.898;8.202;2023-07-22T04:03:03;16.50;;;11.63;;
14939;SDS011;11825;51.898;8.202;2023-07-22T04:08:04;13.90;;;12.23;;
14939;SDS011;11825;51.898;8.202;2023-07-22T04:13:06;19.97;;;13.00;;
14939;SDS011;11825;51.898;8.202;2023-07-22T04:18:08;14.40;;;11.50;;
14939;SDS011;11825;51.898;8.202;2023-07-22T04:23:10;13.40;;;12.00;;
14939;SDS011;11825;51.898;8.202;2023-07-22T04:28:12;16.83;;;12.17;;
14939;SDS011;11825;51.898;8.202;2023-07-22T04:33:14;18.07;;;12.30;;
14939;SDS011;11825;51.898;8.202;2023-07-22T04:38:17;13.97;;;11.93;;
14939;SDS011;11825;51.898;8.202;2023-07-22T04:43:19;19.77;;;12.50;;
14939;SDS011;11825;51.898;8.202;2023-07-22T04:48:26;15.20;;;12.40;;
14939;SDS011;11825;51.898;8.202;2023-07-22T04:53:27;18.10;;;12.30;;
14939;SDS011;11825;51.898;8.202;2023-07-22T04:58:29;15.27;;;12.57;;
14939;SDS011;11825;51.898;8.202;2023-07-22T05:03:31;13.83;;;10.20;;
14939;SDS011;11825;51.898;8.202;2023-07-22T05:08:33;19.90;;;12.87;;
14939;SDS011;11825;51.898;8.202;2023-07-22T05:13:34;13.47;;;12.07;;
14939;SDS011;11825;51.898;8.202;2023-07-22T05:18:36;15.80;;;11.53;;
14939;SDS011;11825;51.898;8.202;2023-07-22T05:23:42;16.40;;;12.40;;
14939;SDS011;11825;51.898;8.202;2023-07-22T05:28:44;16.13;;;10.87;;
14939;SDS011;11825;51.898;8.202;2023-07-22T05:33:47;15.07;;;12.23;;
14939;SDS011;11825;51.898;8.202;2023-07-22T05:38:49;17.57;;;11.97;;
14939;SDS011;11825;51.898;8.202;2023-07-22T05:43:51;13.07;;;11.50;;
14939;SDS011;11825;51.898;8.202;2023-07-22T05:48:55;14.20;;;11.30;;
14939;SDS011;11825;51.898;8.202;2023-07-22T05:53:57;16.30;;;11.83;;
14939;SDS011;11825;51.898;8.202;2023-07-22T05:58:59;13.37;;;11.40;;
14939;SDS011;11825;51.898;8.202;2023-07-22T06:04:03;14.67;;;11.30;;
14939;SDS011;11825;51.898;8.202;2023-07-22T06:09:05;16.37;;;10.47;;
14939;SDS011;11825;51.898;8.202;2023-07-22T06:14:07;12.70;;;11.27;;
14939;SDS011;11825;51.898;8.202;2023-07-22T06:19:09;11.63;;;9.87;;
14939;SDS011;11825;51.898;8.202;2023-07-22T06:24:11;14.40;;;10.63;;
14939;SDS011;11825;51.898;8.202;2023-07-22T06:29:15;13.50;;;9.90;;
14939;SDS011;11825;51.898;8.202;2023-07-22T06:34:19;11.43;;;10.23;;
14939;SDS011;11825;51.898;8.202;2023-07-22T06:39:24;11.47;;;9.03;;
14939;SDS011;11825;51.898;8.202;2023-07-22T06:44:33;12.60;;;10.33;;
14939;SDS011;11825;51.898;8.202;2023-07-22T06:49:37;11.23;;;9.73;;
14939;SDS011;11825;51.898;8.202;2023-07-22T06:54:41;13.43;;;9.90;;
14939;SDS011;11825;51.898;8.202;2023-07-22T06:59:43;13.30;;;10.70;;
14939;SDS011;11825;51.898;8.202;2023-07-22T07:04:44;16.43;;;10.07;;
14939;SDS011;11825;51.898;8.202;2023-07-22T07:09:52;13.30;;;10.93;;
14939;SDS011;11825;51.898;8.202;2023-07-22T07:14:54;11.97;;;9.57;;
14939;SDS011;11825;51.898;8.202;2023-07-22T07:19:57;10.00;;;8.80;;
14939;SDS011;11825;51.898;8.202;2023-07-22T07:25:04;10.47;;;9.07;;
14939;SDS011;11825;51.898;8.202;2023-07-22T07:30:11;13.10;;;10.13;;
14939;SDS011;11825;51.898;8.202;2023-07-22T07:35:26;12.67;;;9.87;;
14939;SDS011;11825;51.898;8.202;2023-07-22T07:40:30;12.50;;;10.07;;
14939;SDS011;11825;51.898;8.202;2023-07-22T07:45:38;11.40;;;9.77;;
14939;SDS011;11825;51.898;8.202;2023-07-22T07:50:42;12.33;;;10.23;;
14939;SDS011;11825;51.898;8.202;2023-07-22T07:55:44;12.90;;;9.80;;
14939;SDS011;11825;51.898;8.202;2023-07-22T08:00:49;12.97;;;10.93;;
14939;SDS011;11825;51.898;8.202;2023-07-22T08:05:57;15.73;;;11.27;;
14939;SDS011;11825;51.898;8.202;2023-07-22T08:11:06;12.63;;;10.30;;
14939;SDS011;11825;51.898;8.202;2023-07-22T08:16:12;14.17;;;11.07;;
14939;SDS011;11825;51.898;8.202;2023-07-22T08:21:18;13.10;;;10.10;;
14939;SDS011;11825;51.898;8.202;2023-07-22T08:26:30;12.07;;;10.50;;
14939;SDS011;11825;51.898;8.202;2023-07-22T08:31:42;14.63;;;12.10;;
14939;SDS011;11825;51.898;8.202;2023-07-22T08:36:47;14.83;;;12.00;;
14939;SDS011;11825;51.898;8.202;2023-07-22T08:41:58;14.73;;;10.50;;
14939;SDS011;11825;51.898;8.202;2023-07-22T08:47:10;13.27;;;11.87;;
14939;SDS011;11825;51.898;8.202;2023-07-22T08:52:22;12.57;;;11.03;;
14939;SDS011;11825;51.898;8.202;2023-07-22T08:57:29;11.30;;;10.07;;
14939;SDS011;11825;51.898;8.202;2023-07-22T09:02:47;13.37;;;9.57;;
14939;SDS011;11825;51.898;8.202;2023-07-22T09:07:55;9.43;;;8.07;;
14939;SDS011;11825;51.898;8.202;2023-07-22T09:13:05;8.83;;;8.00;;
14939;SDS011;11825;51.898;8.202;2023-07-22T09:18:12;10.90;;;9.63;;
14939;SDS011;11825;51.898;8.202;2023-07-22T09:23:31;10.07;;;8.30;;
14939;SDS011;11825;51.898;8.202;2023-07-22T09:28:55;8.63;;;7.43;;
14939;SDS011;11825;51.898;8.202;2023-07-22T09:34:09;9.13;;;8.23;;
14939;SDS011;11825;51.898;8.202;2023-07-22T09:39:14;7.50;;;6.70;;
14939;SDS011;11825;51.898;8.202;2023-07-22T09:44:18;11.87;;;9.33;;
14939;SDS011;11825;51.898;8.202;2023-07-22T09:49:23;13.07;;;7.27;;
14939;SDS011;11825;51.898;8.202;2023-07-22T09:54:28;11.07;;;8.27;;
14939;SDS011;11825;51.898;8.202;2023-07-22T09:59:31;9.23;;;8.10;;
14939;SDS011;11825;51.898;8.202;2023-07-22T10:04:34;19.83;;;17.73;;
14939;SDS011;11825;51.898;8.202;2023-07-22T10:16:01;9.23;;;8.03;;
14939;SDS011;11825;51.898;8.202;2023-07-22T10:21:03;8.13;;;7.10;;
14939;SDS011;11825;51.898;8.202;2023-07-22T11:35:09;6.67;;;5.53;;
14939;SDS011;11825;51.898;8.202;2023-07-22T11:40:11;6.43;;;4.70;;
14939;SDS011;11825;51.898;8.202;2023-07-22T12:15:34;8.43;;;4.13;;
14939;SDS011;11825;51.898;8.202;2023-07-22T12:20:37;5.67;;;5.10;;
14939;SDS011;11825;51.898;8.202;2023-07-22T12:25:39;5.20;;;4.70;;
14939;SDS011;11825;51.898;8.202;2023-07-22T12:37:22;5.37;;;4.87;;
14939;SDS011;11825;51.898;8.202;2023-07-22T12:56:01;4.57;;;3.90;;
14939;SDS011;11825;51.898;8.202;2023-07-22T13:01:07;4.47;;;3.63;;
14939;SDS011;11825;51.898;8.202;2023-07-22T13:11:57;5.60;;;3.60;;
14939;SDS011;11825;51.898;8.202;2023-07-22T13:16:59;4.77;;;4.07;;
14939;SDS011;11825;51.898;8.202;2023-07-22T14:14:21;3.17;;;2.87;;
14939;SDS011;11825;51.898;8.202;2023-07-22T14:26:19;2.87;;;2.60;;
14939;SDS011;11825;51.898;8.202;2023-07-22T14:37:54;3.93;;;3.07;;
14939;SDS011;11825;51.898;8.202;2023-07-22T15:28:25;3.03;;;2.70;;
14939;SDS011;11825;51.898;8.202;2023-07-22T16:49:37;6.07;;;5.47;;
14939;SDS011;11825;51.898;8.202;2023-07-22T17:41:20;4.27;;;3.33;;
14939;SDS011;11825;51.898;8.202;2023-07-22T17:54:48;3.53;;;3.23;;
14939;SDS011;11825;51.898;8.202;2023-07-22T18:26:47;3.90;;;3.57;;
14939;SDS011;11825;51.898;8.202;2023-07-22T18:39:19;3.60;;;2.50;;
14939;SDS011;11825;51.898;8.202;2023-07-22T19:16:36;3.33;;;3.03;;
14939;SDS011;11825;51.898;8.202;2023-07-22T19:29:29;5.03;;;4.10;;
14939;SDS011;11825;51.898;8.202;2023-07-22T19:35:58;3.93;;;2.67;;
14939;SDS011;11825;51.898;8.202;2023-07-22T19:54:14;3.33;;;3.03;;
14939;SDS011;11825;51.898;8.202;2023-07-22T19:59:24;3.63;;;3.30;;
14939;SDS011;11825;51.898;8.202;2023-07-22T20:05:17;3.97;;;3.17;;
14939;SDS011;11825;51.898;8.202;2023-07-22T20:10:53;4.03;;;2.90;;
14939;SDS011;11825;51.898;8.202;2023-07-22T20:16:16;4.70;;;3.47;;
14939;SDS011;11825;51.898;8.202;2023-07-22T20:21:18;3.13;;;2.80;;
14939;SDS011;11825;51.898;8.202;2023-07-22T20:26:38;4.30;;;2.87;;
14939;SDS011;11825;51.898;8.202;2023-07-22T20:31:45;3.93;;;3.23;;
14939;SDS011;11825;51.898;8.202;2023-07-22T20:37:27;3.60;;;3.23;;
14939;SDS011;11825;51.898;8.202;2023-07-22T20:42:30;3.37;;;2.93;;
14939;SDS011;11825;51.898;8.202;2023-07-22T20:47:31;3.17;;;2.87;;
14939;SDS011;11825;51.898;8.202;2023-07-22T20:52:33;4.13;;;3.30;;
14939;SDS011;11825;51.898;8.202;2023-07-22T20:57:35;3.37;;;2.90;;
14939;SDS011;11825;51.898;8.202;2023-07-22T21:02:37;6.17;;;3.63;;
14939;SDS011;11825;51.898;8.202;2023-07-22T21:07:39;3.43;;;3.07;;
14939;SDS011;11825;51.898;8.202;2023-07-22T21:12:41;5.40;;;3.90;;
14939;SDS011;11825;51.898;8.202;2023-07-22T21:17:43;17.70;;;15.17;;
14939;SDS011;11825;51.898;8.202;2023-07-22T21:22:45;4.27;;;3.87;;
14939;SDS011;11825;51.898;8.202;2023-07-22T21:27:46;4.77;;;3.30;;
14939;SDS011;11825;51.898;8.202;2023-07-22T21:32:49;5.00;;;3.43;;
14939;SDS011;11825;51.898;8.202;2023-07-22T21:37:51;4.47;;;3.80;;
14939;SDS011;11825;51.898;8.202;2023-07-22T21:42:52;4.80;;;3.93;;
14939;SDS011;11825;51.898;8.202;2023-07-22T21:47:55;4.13;;;3.13;;
14939;SDS011;11825;51.898;8.202;2023-07-22T21:52:56;7.53;;;4.43;;
14939;SDS011;11825;51.898;8.202;2023-07-22T21:57:58;3.97;;;3.33;;
14939;SDS011;11825;51.898;8.202;2023-07-22T22:03:04;7.43;;;5.23;;
14939;SDS011;11825;51.898;8.202;2023-07-22T22:08:06;6.10;;;4.37;;
14939;SDS011;11825;51.898;8.202;2023-07-22T22:13:08;4.60;;;4.20;;
14939;SDS011;11825;51.898;8.202;2023-07-22T22:18:11;8.37;;;5.00;;
14939;SDS011;11825;51.898;8.202;2023-07-22T22:23:16;6.73;;;5.13;;
14939;SDS011;11825;51.898;8.202;2023-07-22T22:28:18;5.80;;;5.20;;
14939;SDS011;11825;51.898;8.202;2023-07-22T22:33:19;7.23;;;4.00;;
14939;SDS011;11825;51.898;8.202;2023-07-22T22:38:21;5.20;;;4.70;;
14939;SDS011;11825;51.898;8.202;2023-07-22T22:43:23;7.17;;;4.80;;
14939;SDS011;11825;51.898;8.202;2023-07-22T22:48:24;5.30;;;4.80;;
14939;SDS011;11825;51.898;8.202;2023-07-22T22:53:26;5.37;;;4.87;;
14939;SDS011;11825;51.898;8.202;2023-07-22T22:58:28;7.30;;;4.80;;
14939;SDS011;11825;51.898;8.202;2023-07-22T23:03:29;7.70;;;4.70;;
14939;SDS011;11825;51.898;8.202;2023-07-22T23:08:31;6.13;;;5.13;;
14939;SDS011;11825;51.898;8.202;2023-07-22T23:13:33;8.03;;;5.87;;
14939;SDS011;11825;51.898;8.202;2023-07-22T23:18:34;6.67;;;5.23;;
14939;SDS011;11825;51.898;8.202;2023-07-22T23:23:36;8.80;;;6.33;;
14939;SDS011;11825;51.898;8.202;2023-07-22T23:28:39;9.00;;;6.27;;
14939;SDS011;11825;51.898;8.202;2023-07-22T23:33:58;7.90;;;6.27;;
14939;SDS011;11825;51.898;8.202;2023-07-22T23:38:59;10.30;;;6.83;;
14939;SDS011;11825;51.898;8.202;2023-07-22T23:44:02;8.07;;;5.53;;
14939;SDS011;11825;51.898;8.202;2023-07-22T23:49:05;6.67;;;6.00;;
14939;SDS011;11825;51.898;8.202;2023-07-22T23:54:06;6.63;;;5.13;;
14939;SDS011;11825;51.898;8.202;2023-07-22T23:59:08;6.03;;;5.10;;
